< < Back
Terminal Aerodrome Forecast


Current Version              Previous Versions:   1  2  3  4  5  6  7  8  9  

Terminal Aerodrome Forecast

996
FTUS44 KBMX 302300
TAFMGM
TAF
KMGM 302321Z 0100/0124 00000KT P6SM SKC
      TEMPO 0109/0112 5SM BR
     FM011400 11003KT P6SM SKC=

Latest METAR

283
SAUS80 KWBC 302300 RRA
MTRMGM
METAR KMGM 302253Z 00000KT 10SM CLR 29/16 A2986 RMK AO2 SLP109
T02890156


USA.gov is the U.S. government's official web portal to all federal, state and local government web resources and services.